sensor_id;sensor_type;location;lat;lon;timestamp;P1;durP1;ratioP1;P2;durP2;ratioP2
44784;SDS011;30507;53.160;8.210;2023-08-24T00:01:24;0.30;;;0.30;;
44784;SDS011;30507;53.160;8.210;2023-08-24T00:03:50;0.40;;;0.40;;
44784;SDS011;30507;53.160;8.210;2023-08-24T00:06:15;0.30;;;0.30;;
44784;SDS011;30507;53.160;8.210;2023-08-24T00:08:41;0.30;;;0.30;;
44784;SDS011;30507;53.160;8.210;2023-08-24T00:11:06;0.30;;;0.30;;
44784;SDS011;30507;53.160;8.210;2023-08-24T00:13:32;0.70;;;0.50;;
44784;SDS011;30507;53.160;8.210;2023-08-24T00:15:57;0.50;;;0.30;;
44784;SDS011;30507;53.160;8.210;2023-08-24T00:18:23;0.60;;;0.30;;
44784;SDS011;30507;53.160;8.210;2023-08-24T00:20:49;0.32;;;0.32;;
44784;SDS011;30507;53.160;8.210;2023-08-24T00:23:14;1.63;;;0.40;;
44784;SDS011;30507;53.160;8.210;2023-08-24T00:25:39;0.30;;;0.30;;
44784;SDS011;30507;53.160;8.210;2023-08-24T00:28:06;0.22;;;0.22;;
44784;SDS011;30507;53.160;8.210;2023-08-24T00:30:31;0.40;;;0.30;;
44784;SDS011;30507;53.160;8.210;2023-08-24T00:32:56;1.33;;;0.30;;
44784;SDS011;30507;53.160;8.210;2023-08-24T00:35:21;0.35;;;0.20;;
44784;SDS011;30507;53.160;8.210;2023-08-24T00:37:46;0.30;;;0.30;;
44784;SDS011;30507;53.160;8.210;2023-08-24T00:40:11;0.30;;;0.30;;
44784;SDS011;30507;53.160;8.210;2023-08-24T00:42:37;0.20;;;0.20;;
44784;SDS011;30507;53.160;8.210;2023-08-24T00:45:03;0.63;;;0.20;;
44784;SDS011;30507;53.160;8.210;2023-08-24T00:47:28;0.53;;;0.53;;
44784;SDS011;30507;53.160;8.210;2023-08-24T00:49:54;0.30;;;0.30;;
44784;SDS011;30507;53.160;8.210;2023-08-24T00:52:19;0.40;;;0.32;;
44784;SDS011;30507;53.160;8.210;2023-08-24T00:54:45;0.30;;;0.30;;
44784;SDS011;30507;53.160;8.210;2023-08-24T00:57:10;0.90;;;0.60;;
44784;SDS011;30507;53.160;8.210;2023-08-24T00:59:35;0.55;;;0.40;;
44784;SDS011;30507;53.160;8.210;2023-08-24T01:02:00;0.30;;;0.30;;
44784;SDS011;30507;53.160;8.210;2023-08-24T01:04:26;0.20;;;0.20;;
44784;SDS011;30507;53.160;8.210;2023-08-24T01:06:52;0.20;;;0.20;;
44784;SDS011;30507;53.160;8.210;2023-08-24T01:09:17;0.30;;;0.30;;
44784;SDS011;30507;53.160;8.210;2023-08-24T01:16:43;0.30;;;0.20;;
44784;SDS011;30507;53.160;8.210;2023-08-24T01:19:10;0.40;;;0.40;;
44784;SDS011;30507;53.160;8.210;2023-08-24T01:21:38;0.22;;;0.20;;
44784;SDS011;30507;53.160;8.210;2023-08-24T01:24:07;0.40;;;0.20;;
44784;SDS011;30507;53.160;8.210;2023-08-24T01:26:33;0.95;;;0.73;;
44784;SDS011;30507;53.160;8.210;2023-08-24T01:28:59;0.52;;;0.32;;
44784;SDS011;30507;53.160;8.210;2023-08-24T01:31:24;0.20;;;0.20;;
44784;SDS011;30507;53.160;8.210;2023-08-24T01:33:49;0.27;;;0.20;;
44784;SDS011;30507;53.160;8.210;2023-08-24T01:36:15;0.38;;;0.30;;
44784;SDS011;30507;53.160;8.210;2023-08-24T01:38:41;0.10;;;0.10;;
44784;SDS011;30507;53.160;8.210;2023-08-24T01:41:16;0.10;;;0.10;;
44784;SDS011;30507;53.160;8.210;2023-08-24T01:43:45;0.20;;;0.20;;
44784;SDS011;30507;53.160;8.210;2023-08-24T01:46:14;0.30;;;0.20;;
44784;SDS011;30507;53.160;8.210;2023-08-24T01:48:40;0.20;;;0.20;;
44784;SDS011;30507;53.160;8.210;2023-08-24T01:51:05;0.13;;;0.13;;
44784;SDS011;30507;53.160;8.210;2023-08-24T01:53:31;0.43;;;0.43;;
44784;SDS011;30507;53.160;8.210;2023-08-24T01:55:57;0.82;;;0.45;;
44784;SDS011;30507;53.160;8.210;2023-08-24T01:58:22;0.40;;;0.40;;
44784;SDS011;30507;53.160;8.210;2023-08-24T02:00:47;0.30;;;0.30;;
44784;SDS011;30507;53.160;8.210;2023-08-24T02:03:12;0.27;;;0.20;;
44784;SDS011;30507;53.160;8.210;2023-08-24T02:05:37;1.02;;;0.25;;
44784;SDS011;30507;53.160;8.210;2023-08-24T02:08:03;0.10;;;0.10;;
44784;SDS011;30507;53.160;8.210;2023-08-24T02:10:28;0.13;;;0.13;;
44784;SDS011;30507;53.160;8.210;2023-08-24T02:12:53;0.38;;;0.30;;
44784;SDS011;30507;53.160;8.210;2023-08-24T02:15:19;0.30;;;0.30;;
44784;SDS011;30507;53.160;8.210;2023-08-24T02:17:44;0.15;;;0.15;;
44784;SDS011;30507;53.160;8.210;2023-08-24T02:20:10;0.30;;;0.22;;
44784;SDS011;30507;53.160;8.210;2023-08-24T02:22:36;0.20;;;0.20;;
44784;SDS011;30507;53.160;8.210;2023-08-24T02:25:01;0.20;;;0.20;;
44784;SDS011;30507;53.160;8.210;2023-08-24T02:27:28;0.20;;;0.20;;
44784;SDS011;30507;53.160;8.210;2023-08-24T02:29:53;0.40;;;0.20;;
44784;SDS011;30507;53.160;8.210;2023-08-24T02:32:18;0.20;;;0.20;;
44784;SDS011;30507;53.160;8.210;2023-08-24T02:34:43;0.37;;;0.37;;
44784;SDS011;30507;53.160;8.210;2023-08-24T02:37:08;1.70;;;0.50;;
44784;SDS011;30507;53.160;8.210;2023-08-24T02:39:33;1.00;;;0.20;;
44784;SDS011;30507;53.160;8.210;2023-08-24T02:41:59;0.30;;;0.20;;
44784;SDS011;30507;53.160;8.210;2023-08-24T02:44:26;0.20;;;0.20;;
44784;SDS011;30507;53.160;8.210;2023-08-24T02:46:51;0.10;;;0.10;;
44784;SDS011;30507;53.160;8.210;2023-08-24T02:49:16;0.47;;;0.20;;
44784;SDS011;30507;53.160;8.210;2023-08-24T02:51:41;0.22;;;0.22;;
44784;SDS011;30507;53.160;8.210;2023-08-24T02:54:06;0.20;;;0.20;;
44784;SDS011;30507;53.160;8.210;2023-08-24T02:56:31;0.30;;;0.30;;
44784;SDS011;30507;53.160;8.210;2023-08-24T02:58:56;0.20;;;0.20;;
44784;SDS011;30507;53.160;8.210;2023-08-24T03:01:22;0.20;;;0.20;;
44784;SDS011;30507;53.160;8.210;2023-08-24T03:03:47;0.30;;;0.30;;
44784;SDS011;30507;53.160;8.210;2023-08-24T03:06:12;0.10;;;0.10;;
44784;SDS011;30507;53.160;8.210;2023-08-24T03:08:38;0.10;;;0.10;;
44784;SDS011;30507;53.160;8.210;2023-08-24T03:11:03;0.20;;;0.20;;
44784;SDS011;30507;53.160;8.210;2023-08-24T03:13:28;0.20;;;0.20;;
44784;SDS011;30507;53.160;8.210;2023-08-24T03:15:54;0.10;;;0.10;;
44784;SDS011;30507;53.160;8.210;2023-08-24T03:18:19;0.28;;;0.20;;
44784;SDS011;30507;53.160;8.210;2023-08-24T03:20:45;0.40;;;0.40;;
44784;SDS011;30507;53.160;8.210;2023-08-24T03:23:11;0.10;;;0.10;;
44784;SDS011;30507;53.160;8.210;2023-08-24T03:25:37;0.47;;;0.47;;
44784;SDS011;30507;53.160;8.210;2023-08-24T03:28:03;0.20;;;0.20;;
44784;SDS011;30507;53.160;8.210;2023-08-24T03:30:28;0.20;;;0.20;;
44784;SDS011;30507;53.160;8.210;2023-08-24T03:32:53;0.30;;;0.10;;
44784;SDS011;30507;53.160;8.210;2023-08-24T03:35:18;0.20;;;0.20;;
44784;SDS011;30507;53.160;8.210;2023-08-24T03:37:44;0.20;;;0.20;;
44784;SDS011;30507;53.160;8.210;2023-08-24T03:40:09;0.30;;;0.20;;
44784;SDS011;30507;53.160;8.210;2023-08-24T03:42:34;0.30;;;0.30;;
44784;SDS011;30507;53.160;8.210;2023-08-24T03:44:59;0.17;;;0.17;;
44784;SDS011;30507;53.160;8.210;2023-08-24T03:47:25;0.40;;;0.40;;
44784;SDS011;30507;53.160;8.210;2023-08-24T03:49:50;0.17;;;0.17;;
44784;SDS011;30507;53.160;8.210;2023-08-24T03:52:15;0.50;;;0.50;;
44784;SDS011;30507;53.160;8.210;2023-08-24T03:54:40;0.20;;;0.10;;
44784;SDS011;30507;53.160;8.210;2023-08-24T03:57:05;0.20;;;0.20;;
44784;SDS011;30507;53.160;8.210;2023-08-24T03:59:31;0.30;;;0.30;;
44784;SDS011;30507;53.160;8.210;2023-08-24T04:01:56;0.20;;;0.20;;
44784;SDS011;30507;53.160;8.210;2023-08-24T04:04:24;0.20;;;0.20;;
44784;SDS011;30507;53.160;8.210;2023-08-24T04:06:49;0.47;;;0.38;;
44784;SDS011;30507;53.160;8.210;2023-08-24T04:09:14;0.25;;;0.25;;
44784;SDS011;30507;53.160;8.210;2023-08-24T04:11:40;0.35;;;0.28;;
44784;SDS011;30507;53.160;8.210;2023-08-24T04:14:05;0.40;;;0.40;;
44784;SDS011;30507;53.160;8.210;2023-08-24T04:16:30;0.30;;;0.30;;
44784;SDS011;30507;53.160;8.210;2023-08-24T04:18:55;0.20;;;0.20;;
44784;SDS011;30507;53.160;8.210;2023-08-24T04:21:21;0.30;;;0.30;;
44784;SDS011;30507;53.160;8.210;2023-08-24T04:23:46;0.20;;;0.20;;
44784;SDS011;30507;53.160;8.210;2023-08-24T04:26:11;0.10;;;0.10;;
44784;SDS011;30507;53.160;8.210;2023-08-24T04:28:37;0.30;;;0.25;;
44784;SDS011;30507;53.160;8.210;2023-08-24T04:31:02;0.20;;;0.20;;
44784;SDS011;30507;53.160;8.210;2023-08-24T04:33:28;0.23;;;0.23;;
44784;SDS011;30507;53.160;8.210;2023-08-24T04:35:53;0.43;;;0.43;;
44784;SDS011;30507;53.160;8.210;2023-08-24T04:38:18;0.10;;;0.10;;
44784;SDS011;30507;53.160;8.210;2023-08-24T04:40:51;0.30;;;0.20;;
44784;SDS011;30507;53.160;8.210;2023-08-24T04:43:17;3.63;;;1.63;;
44784;SDS011;30507;53.160;8.210;2023-08-24T04:45:43;2.30;;;1.40;;
44784;SDS011;30507;53.160;8.210;2023-08-24T04:48:08;3.80;;;1.00;;
44784;SDS011;30507;53.160;8.210;2023-08-24T04:50:33;4.27;;;1.80;;
44784;SDS011;30507;53.160;8.210;2023-08-24T04:52:58;0.87;;;0.60;;
44784;SDS011;30507;53.160;8.210;2023-08-24T04:55:23;2.92;;;0.85;;
44784;SDS011;30507;53.160;8.210;2023-08-24T04:57:49;1.63;;;1.27;;
44784;SDS011;30507;53.160;8.210;2023-08-24T05:00:14;15.57;;;4.32;;
44784;SDS011;30507;53.160;8.210;2023-08-24T05:02:41;28.00;;;7.13;;
44784;SDS011;30507;53.160;8.210;2023-08-24T05:05:06;14.27;;;4.00;;
44784;SDS011;30507;53.160;8.210;2023-08-24T05:07:32;11.55;;;2.95;;
44784;SDS011;30507;53.160;8.210;2023-08-24T05:09:57;17.58;;;3.78;;
44784;SDS011;30507;53.160;8.210;2023-08-24T05:12:22;17.48;;;4.15;;
44784;SDS011;30507;53.160;8.210;2023-08-24T05:14:47;13.35;;;3.63;;
44784;SDS011;30507;53.160;8.210;2023-08-24T05:17:13;14.65;;;4.00;;
44784;SDS011;30507;53.160;8.210;2023-08-24T05:19:38;19.83;;;3.72;;
44784;SDS011;30507;53.160;8.210;2023-08-24T05:22:03;13.67;;;3.83;;
44784;SDS011;30507;53.160;8.210;2023-08-24T05:24:28;11.43;;;3.10;;
44784;SDS011;30507;53.160;8.210;2023-08-24T05:26:53;11.00;;;2.97;;
44784;SDS011;30507;53.160;8.210;2023-08-24T05:29:18;11.63;;;2.47;;
44784;SDS011;30507;53.160;8.210;2023-08-24T05:31:43;9.80;;;2.40;;
44784;SDS011;30507;53.160;8.210;2023-08-24T05:34:09;6.87;;;2.60;;
44784;SDS011;30507;53.160;8.210;2023-08-24T05:36:34;8.80;;;3.10;;
44784;SDS011;30507;53.160;8.210;2023-08-24T05:38:59;6.47;;;2.63;;
44784;SDS011;30507;53.160;8.210;2023-08-24T05:41:24;18.75;;;3.53;;
44784;SDS011;30507;53.160;8.210;2023-08-24T05:43:49;12.13;;;2.87;;
44784;SDS011;30507;53.160;8.210;2023-08-24T05:46:16;4.03;;;2.20;;
44784;SDS011;30507;53.160;8.210;2023-08-24T05:48:41;9.77;;;3.83;;
44784;SDS011;30507;53.160;8.210;2023-08-24T05:51:06;6.00;;;2.27;;
44784;SDS011;30507;53.160;8.210;2023-08-24T05:53:34;6.35;;;2.20;;
44784;SDS011;30507;53.160;8.210;2023-08-24T05:55:59;9.20;;;2.63;;
44784;SDS011;30507;53.160;8.210;2023-08-24T05:58:24;7.77;;;2.07;;
44784;SDS011;30507;53.160;8.210;2023-08-24T06:00:55;7.37;;;2.47;;
44784;SDS011;30507;53.160;8.210;2023-08-24T06:03:20;5.05;;;2.28;;
44784;SDS011;30507;53.160;8.210;2023-08-24T06:05:45;4.00;;;1.85;;
44784;SDS011;30507;53.160;8.210;2023-08-24T06:08:10;6.10;;;2.38;;
44784;SDS011;30507;53.160;8.210;2023-08-24T06:10:36;6.87;;;2.33;;
44784;SDS011;30507;53.160;8.210;2023-08-24T06:13:01;7.20;;;2.63;;
44784;SDS011;30507;53.160;8.210;2023-08-24T06:15:26;11.93;;;2.60;;
44784;SDS011;30507;53.160;8.210;2023-08-24T06:17:53;4.88;;;1.73;;
44784;SDS011;30507;53.160;8.210;2023-08-24T06:20:19;9.00;;;2.40;;
44784;SDS011;30507;53.160;8.210;2023-08-24T06:22:44;6.95;;;2.38;;
44784;SDS011;30507;53.160;8.210;2023-08-24T06:25:09;4.95;;;1.73;;
44784;SDS011;30507;53.160;8.210;2023-08-24T06:27:35;5.68;;;2.42;;
44784;SDS011;30507;53.160;8.210;2023-08-24T06:30:01;5.07;;;2.20;;
44784;SDS011;30507;53.160;8.210;2023-08-24T06:32:26;5.85;;;1.75;;
44784;SDS011;30507;53.160;8.210;2023-08-24T06:34:51;4.57;;;2.55;;
44784;SDS011;30507;53.160;8.210;2023-08-24T06:37:16;4.23;;;1.67;;
44784;SDS011;30507;53.160;8.210;2023-08-24T06:39:41;2.33;;;1.27;;
44784;SDS011;30507;53.160;8.210;2023-08-24T06:42:06;4.97;;;1.88;;
44784;SDS011;30507;53.160;8.210;2023-08-24T06:44:32;2.37;;;1.07;;
44784;SDS011;30507;53.160;8.210;2023-08-24T06:46:57;6.73;;;2.03;;
44784;SDS011;30507;53.160;8.210;2023-08-24T06:49:22;7.50;;;1.70;;
44784;SDS011;30507;53.160;8.210;2023-08-24T06:51:47;6.00;;;1.73;;
44784;SDS011;30507;53.160;8.210;2023-08-24T06:54:12;4.88;;;1.55;;
44784;SDS011;30507;53.160;8.210;2023-08-24T06:56:39;4.05;;;1.48;;
44784;SDS011;30507;53.160;8.210;2023-08-24T06:59:04;3.33;;;1.20;;
44784;SDS011;30507;53.160;8.210;2023-08-24T07:01:30;2.60;;;1.20;;
44784;SDS011;30507;53.160;8.210;2023-08-24T07:03:56;6.57;;;2.60;;
44784;SDS011;30507;53.160;8.210;2023-08-24T07:06:21;4.75;;;2.13;;
44784;SDS011;30507;53.160;8.210;2023-08-24T07:08:47;2.70;;;1.10;;
44784;SDS011;30507;53.160;8.210;2023-08-24T07:11:12;2.77;;;1.17;;
44784;SDS011;30507;53.160;8.210;2023-08-24T07:13:39;2.95;;;1.08;;
44784;SDS011;30507;53.160;8.210;2023-08-24T07:16:04;2.50;;;1.33;;
44784;SDS011;30507;53.160;8.210;2023-08-24T07:18:29;3.43;;;1.13;;
44784;SDS011;30507;53.160;8.210;2023-08-24T07:20:54;2.20;;;1.60;;
44784;SDS011;30507;53.160;8.210;2023-08-24T07:23:19;1.95;;;0.80;;
44784;SDS011;30507;53.160;8.210;2023-08-24T07:25:45;3.60;;;1.25;;
44784;SDS011;30507;53.160;8.210;2023-08-24T07:28:10;3.63;;;1.20;;
44784;SDS011;30507;53.160;8.210;2023-08-24T07:30:35;2.93;;;1.90;;
44784;SDS011;30507;53.160;8.210;2023-08-24T07:33:01;1.75;;;0.88;;
44784;SDS011;30507;53.160;8.210;2023-08-24T07:35:27;3.77;;;1.33;;
44784;SDS011;30507;53.160;8.210;2023-08-24T07:37:53;3.47;;;1.07;;
44784;SDS011;30507;53.160;8.210;2023-08-24T07:40:18;3.60;;;1.70;;
44784;SDS011;30507;53.160;8.210;2023-08-24T07:42:44;2.37;;;0.97;;
44784;SDS011;30507;53.160;8.210;2023-08-24T07:45:09;1.60;;;1.00;;
44784;SDS011;30507;53.160;8.210;2023-08-24T07:47:34;2.93;;;1.30;;
44784;SDS011;30507;53.160;8.210;2023-08-24T07:50:00;2.70;;;1.30;;
44784;SDS011;30507;53.160;8.210;2023-08-24T07:52:26;3.88;;;0.98;;
44784;SDS011;30507;53.160;8.210;2023-08-24T07:54:53;2.70;;;1.10;;
44784;SDS011;30507;53.160;8.210;2023-08-24T07:57:18;5.30;;;1.77;;
44784;SDS011;30507;53.160;8.210;2023-08-24T07:59:44;2.05;;;1.17;;
44784;SDS011;30507;53.160;8.210;2023-08-24T08:02:09;3.70;;;1.58;;
44784;SDS011;30507;53.160;8.210;2023-08-24T08:04:34;2.55;;;0.75;;
44784;SDS011;30507;53.160;8.210;2023-08-24T08:06:59;2.50;;;1.00;;
44784;SDS011;30507;53.160;8.210;2023-08-24T08:09:24;2.83;;;1.23;;
44784;SDS011;30507;53.160;8.210;2023-08-24T08:11:50;2.60;;;1.20;;
44784;SDS011;30507;53.160;8.210;2023-08-24T08:14:15;2.13;;;0.82;;
44784;SDS011;30507;53.160;8.210;2023-08-24T08:16:40;1.73;;;0.73;;
44784;SDS011;30507;53.160;8.210;2023-08-24T08:19:05;1.63;;;0.87;;
44784;SDS011;30507;53.160;8.210;2023-08-24T08:21:31;1.50;;;0.77;;
44784;SDS011;30507;53.160;8.210;2023-08-24T08:23:56;3.77;;;1.10;;
44784;SDS011;30507;53.160;8.210;2023-08-24T08:26:22;2.10;;;1.10;;
44784;SDS011;30507;53.160;8.210;2023-08-24T08:28:47;1.97;;;1.43;;
44784;SDS011;30507;53.160;8.210;2023-08-24T08:31:12;1.80;;;0.50;;
44784;SDS011;30507;53.160;8.210;2023-08-24T08:33:38;1.60;;;0.88;;
44784;SDS011;30507;53.160;8.210;2023-08-24T08:36:03;1.50;;;0.80;;
44784;SDS011;30507;53.160;8.210;2023-08-24T08:38:28;4.65;;;1.13;;
44784;SDS011;30507;53.160;8.210;2023-08-24T08:40:54;1.85;;;1.05;;
44784;SDS011;30507;53.160;8.210;2023-08-24T08:43:21;2.67;;;0.80;;
44784;SDS011;30507;53.160;8.210;2023-08-24T08:45:46;1.83;;;0.90;;
44784;SDS011;30507;53.160;8.210;2023-08-24T08:48:12;1.38;;;0.95;;
44784;SDS011;30507;53.160;8.210;2023-08-24T08:50:37;1.97;;;1.20;;
44784;SDS011;30507;53.160;8.210;2023-08-24T08:53:02;3.10;;;1.27;;
44784;SDS011;30507;53.160;8.210;2023-08-24T08:55:27;1.10;;;0.50;;
44784;SDS011;30507;53.160;8.210;2023-08-24T08:57:53;1.33;;;0.83;;
44784;SDS011;30507;53.160;8.210;2023-08-24T09:00:23;1.33;;;0.80;;
44784;SDS011;30507;53.160;8.210;2023-08-24T09:02:48;4.68;;;1.27;;
44784;SDS011;30507;53.160;8.210;2023-08-24T09:05:15;3.15;;;1.33;;
44784;SDS011;30507;53.160;8.210;2023-08-24T09:07:40;1.93;;;0.77;;
44784;SDS011;30507;53.160;8.210;2023-08-24T09:10:06;0.88;;;0.63;;
44784;SDS011;30507;53.160;8.210;2023-08-24T09:12:32;2.08;;;1.10;;
44784;SDS011;30507;53.160;8.210;2023-08-24T09:14:58;3.97;;;1.50;;
44784;SDS011;30507;53.160;8.210;2023-08-24T09:17:23;3.50;;;1.02;;
44784;SDS011;30507;53.160;8.210;2023-08-24T09:19:53;0.70;;;0.68;;
44784;SDS011;30507;53.160;8.210;2023-08-24T09:22:18;2.20;;;1.02;;
44784;SDS011;30507;53.160;8.210;2023-08-24T09:24:43;1.63;;;0.97;;
44784;SDS011;30507;53.160;8.210;2023-08-24T09:27:16;2.30;;;0.93;;
44784;SDS011;30507;53.160;8.210;2023-08-24T09:29:42;2.53;;;1.30;;
44784;SDS011;30507;53.160;8.210;2023-08-24T09:32:07;2.13;;;0.90;;
44784;SDS011;30507;53.160;8.210;2023-08-24T09:34:33;1.27;;;0.40;;
44784;SDS011;30507;53.160;8.210;2023-08-24T09:36:58;1.37;;;0.70;;
44784;SDS011;30507;53.160;8.210;2023-08-24T09:39:23;3.20;;;0.70;;
44784;SDS011;30507;53.160;8.210;2023-08-24T09:41:51;2.70;;;1.43;;
44784;SDS011;30507;53.160;8.210;2023-08-24T09:44:17;1.23;;;0.60;;
44784;SDS011;30507;53.160;8.210;2023-08-24T09:46:42;1.85;;;1.02;;
44784;SDS011;30507;53.160;8.210;2023-08-24T09:49:08;1.07;;;0.63;;
44784;SDS011;30507;53.160;8.210;2023-08-24T09:51:34;0.77;;;0.65;;
44784;SDS011;30507;53.160;8.210;2023-08-24T09:54:00;1.73;;;0.77;;
44784;SDS011;30507;53.160;8.210;2023-08-24T09:56:28;2.15;;;1.00;;
44784;SDS011;30507;53.160;8.210;2023-08-24T09:58:53;1.73;;;0.80;;
44784;SDS011;30507;53.160;8.210;2023-08-24T10:01:19;1.35;;;1.25;;
44784;SDS011;30507;53.160;8.210;2023-08-24T10:03:44;1.67;;;0.82;;
44784;SDS011;30507;53.160;8.210;2023-08-24T10:06:11;1.20;;;0.90;;
44784;SDS011;30507;53.160;8.210;2023-08-24T10:08:39;1.77;;;0.63;;
44784;SDS011;30507;53.160;8.210;2023-08-24T10:11:05;1.92;;;0.93;;
44784;SDS011;30507;53.160;8.210;2023-08-24T10:13:41;0.88;;;0.73;;
44784;SDS011;30507;53.160;8.210;2023-08-24T10:18:35;0.98;;;0.68;;
44784;SDS011;30507;53.160;8.210;2023-08-24T10:21:01;0.95;;;0.90;;
44784;SDS011;30507;53.160;8.210;2023-08-24T10:23:27;0.73;;;0.50;;
44784;SDS011;30507;53.160;8.210;2023-08-24T10:25:54;3.25;;;0.75;;
44784;SDS011;30507;53.160;8.210;2023-08-24T10:28:20;1.65;;;0.98;;
44784;SDS011;30507;53.160;8.210;2023-08-24T10:30:45;0.93;;;0.60;;
44784;SDS011;30507;53.160;8.210;2023-08-24T10:33:11;3.22;;;1.10;;
44784;SDS011;30507;53.160;8.210;2023-08-24T10:35:37;0.90;;;0.77;;
44784;SDS011;30507;53.160;8.210;2023-08-24T10:38:03;0.60;;;0.50;;
44784;SDS011;30507;53.160;8.210;2023-08-24T10:40:35;2.83;;;1.00;;
44784;SDS011;30507;53.160;8.210;2023-08-24T10:43:03;0.68;;;0.40;;
44784;SDS011;30507;53.160;8.210;2023-08-24T10:48:16;1.35;;;1.25;;
44784;SDS011;30507;53.160;8.210;2023-08-24T10:50:41;2.15;;;0.70;;
44784;SDS011;30507;53.160;8.210;2023-08-24T10:53:06;1.63;;;0.85;;
44784;SDS011;30507;53.160;8.210;2023-08-24T10:55:35;1.15;;;0.90;;
44784;SDS011;30507;53.160;8.210;2023-08-24T10:58:02;1.58;;;0.68;;
44784;SDS011;30507;53.160;8.210;2023-08-24T11:00:28;1.10;;;0.90;;
44784;SDS011;30507;53.160;8.210;2023-08-24T11:02:54;0.68;;;0.57;;
44784;SDS011;30507;53.160;8.210;2023-08-24T11:05:20;1.15;;;0.80;;
44784;SDS011;30507;53.160;8.210;2023-08-24T11:07:59;1.33;;;0.80;;
44784;SDS011;30507;53.160;8.210;2023-08-24T11:10:25;3.63;;;0.93;;
44784;SDS011;30507;53.160;8.210;2023-08-24T11:13:06;1.08;;;0.70;;
44784;SDS011;30507;53.160;8.210;2023-08-24T11:15:32;1.70;;;0.50;;
44784;SDS011;30507;53.160;8.210;2023-08-24T11:21:00;1.67;;;1.35;;
44784;SDS011;30507;53.160;8.210;2023-08-24T11:23:27;1.50;;;0.90;;
44784;SDS011;30507;53.160;8.210;2023-08-24T11:25:52;1.07;;;1.00;;
44784;SDS011;30507;53.160;8.210;2023-08-24T11:28:25;1.20;;;1.10;;
44784;SDS011;30507;53.160;8.210;2023-08-24T11:30:50;1.00;;;0.90;;
44784;SDS011;30507;53.160;8.210;2023-08-24T11:33:16;0.63;;;0.63;;
44784;SDS011;30507;53.160;8.210;2023-08-24T11:35:43;1.10;;;0.98;;
44784;SDS011;30507;53.160;8.210;2023-08-24T11:38:08;1.15;;;0.70;;
44784;SDS011;30507;53.160;8.210;2023-08-24T11:40:34;1.10;;;0.97;;
44784;SDS011;30507;53.160;8.210;2023-08-24T11:42:59;0.70;;;0.70;;
44784;SDS011;30507;53.160;8.210;2023-08-24T11:45:29;2.50;;;0.88;;
44784;SDS011;30507;53.160;8.210;2023-08-24T11:47:54;1.05;;;0.90;;
44784;SDS011;30507;53.160;8.210;2023-08-24T11:50:19;1.10;;;0.70;;
44784;SDS011;30507;53.160;8.210;2023-08-24T11:52:44;0.73;;;0.67;;
44784;SDS011;30507;53.160;8.210;2023-08-24T11:55:10;2.17;;;0.93;;
44784;SDS011;30507;53.160;8.210;2023-08-24T11:57:36;2.90;;;0.80;;
44784;SDS011;30507;53.160;8.210;2023-08-24T12:00:06;2.80;;;1.08;;
44784;SDS011;30507;53.160;8.210;2023-08-24T12:02:32;1.13;;;0.82;;
44784;SDS011;30507;53.160;8.210;2023-08-24T12:04:57;1.30;;;0.80;;
44784;SDS011;30507;53.160;8.210;2023-08-24T12:07:23;5.28;;;1.23;;
44784;SDS011;30507;53.160;8.210;2023-08-24T12:09:48;1.47;;;0.80;;
44784;SDS011;30507;53.160;8.210;2023-08-24T12:12:18;1.17;;;1.08;;
44784;SDS011;30507;53.160;8.210;2023-08-24T12:17:11;2.90;;;1.30;;
44784;SDS011;30507;53.160;8.210;2023-08-24T12:19:36;1.05;;;0.88;;
44784;SDS011;30507;53.160;8.210;2023-08-24T12:22:02;2.75;;;1.10;;
44784;SDS011;30507;53.160;8.210;2023-08-24T12:24:28;1.03;;;0.60;;
44784;SDS011;30507;53.160;8.210;2023-08-24T12:26:56;1.98;;;1.10;;
44784;SDS011;30507;53.160;8.210;2023-08-24T12:29:26;0.70;;;0.70;;
44784;SDS011;30507;53.160;8.210;2023-08-24T12:31:56;0.88;;;0.88;;
44784;SDS011;30507;53.160;8.210;2023-08-24T12:34:22;6.10;;;1.45;;
44784;SDS011;30507;53.160;8.210;2023-08-24T12:36:47;2.83;;;1.35;;
44784;SDS011;30507;53.160;8.210;2023-08-24T12:39:12;3.45;;;0.85;;
44784;SDS011;30507;53.160;8.210;2023-08-24T12:41:40;2.17;;;0.88;;
44784;SDS011;30507;53.160;8.210;2023-08-24T12:44:05;1.70;;;0.90;;
44784;SDS011;30507;53.160;8.210;2023-08-24T12:46:32;2.15;;;1.15;;
44784;SDS011;30507;53.160;8.210;2023-08-24T12:48:57;2.63;;;0.85;;
44784;SDS011;30507;53.160;8.210;2023-08-24T12:51:22;0.90;;;0.60;;
44784;SDS011;30507;53.160;8.210;2023-08-24T12:53:49;2.40;;;0.70;;
44784;SDS011;30507;53.160;8.210;2023-08-24T12:56:14;1.27;;;1.17;;
44784;SDS011;30507;53.160;8.210;2023-08-24T12:58:40;0.75;;;0.73;;
44784;SDS011;30507;53.160;8.210;2023-08-24T13:01:05;1.73;;;0.80;;
44784;SDS011;30507;53.160;8.210;2023-08-24T13:03:30;0.83;;;0.80;;
44784;SDS011;30507;53.160;8.210;2023-08-24T13:05:55;0.97;;;0.80;;
44784;SDS011;30507;53.160;8.210;2023-08-24T13:08:20;0.55;;;0.55;;
44784;SDS011;30507;53.160;8.210;2023-08-24T13:10:45;1.20;;;1.08;;
44784;SDS011;30507;53.160;8.210;2023-08-24T13:13:11;1.27;;;1.00;;
44784;SDS011;30507;53.160;8.210;2023-08-24T13:15:36;1.10;;;1.00;;
44784;SDS011;30507;53.160;8.210;2023-08-24T13:18:01;1.60;;;0.73;;
44784;SDS011;30507;53.160;8.210;2023-08-24T13:20:26;0.90;;;0.90;;
44784;SDS011;30507;53.160;8.210;2023-08-24T13:22:52;0.73;;;0.73;;
44784;SDS011;30507;53.160;8.210;2023-08-24T13:25:17;9.75;;;1.00;;
44784;SDS011;30507;53.160;8.210;2023-08-24T13:27:43;0.95;;;0.75;;
44784;SDS011;30507;53.160;8.210;2023-08-24T13:30:08;0.60;;;0.60;;
44784;SDS011;30507;53.160;8.210;2023-08-24T13:32:33;0.90;;;0.73;;
44784;SDS011;30507;53.160;8.210;2023-08-24T13:35:00;0.60;;;0.60;;
44784;SDS011;30507;53.160;8.210;2023-08-24T13:37:25;1.63;;;0.57;;
44784;SDS011;30507;53.160;8.210;2023-08-24T13:39:50;2.35;;;1.15;;
44784;SDS011;30507;53.160;8.210;2023-08-24T13:42:16;1.40;;;0.80;;
44784;SDS011;30507;53.160;8.210;2023-08-24T13:44:41;0.43;;;0.43;;
44784;SDS011;30507;53.160;8.210;2023-08-24T13:47:06;0.93;;;0.77;;
44784;SDS011;30507;53.160;8.210;2023-08-24T13:49:31;1.55;;;0.85;;
44784;SDS011;30507;53.160;8.210;2023-08-24T13:51:56;0.77;;;0.60;;
44784;SDS011;30507;53.160;8.210;2023-08-24T13:54:21;2.70;;;0.63;;
44784;SDS011;30507;53.160;8.210;2023-08-24T13:56:47;0.80;;;0.50;;
44784;SDS011;30507;53.160;8.210;2023-08-24T13:59:13;0.63;;;0.63;;
44784;SDS011;30507;53.160;8.210;2023-08-24T14:01:42;0.80;;;0.70;;
44784;SDS011;30507;53.160;8.210;2023-08-24T14:04:07;1.25;;;0.60;;
44784;SDS011;30507;53.160;8.210;2023-08-24T14:06:33;2.38;;;0.98;;
44784;SDS011;30507;53.160;8.210;2023-08-24T14:08:59;1.67;;;0.95;;
44784;SDS011;30507;53.160;8.210;2023-08-24T14:11:25;1.15;;;0.80;;
44784;SDS011;30507;53.160;8.210;2023-08-24T14:13:50;0.80;;;0.80;;
44784;SDS011;30507;53.160;8.210;2023-08-24T14:16:15;0.80;;;0.80;;
44784;SDS011;30507;53.160;8.210;2023-08-24T14:18:40;0.87;;;0.80;;
44784;SDS011;30507;53.160;8.210;2023-08-24T14:21:05;0.53;;;0.53;;
44784;SDS011;30507;53.160;8.210;2023-08-24T14:23:31;1.47;;;0.70;;
44784;SDS011;30507;53.160;8.210;2023-08-24T14:25:56;0.68;;;0.68;;
44784;SDS011;30507;53.160;8.210;2023-08-24T14:28:21;1.00;;;0.60;;
44784;SDS011;30507;53.160;8.210;2023-08-24T14:30:48;0.93;;;0.77;;
44784;SDS011;30507;53.160;8.210;2023-08-24T14:33:13;0.90;;;0.63;;
44784;SDS011;30507;53.160;8.210;2023-08-24T14:35:38;0.60;;;0.60;;
44784;SDS011;30507;53.160;8.210;2023-08-24T14:38:03;0.80;;;0.60;;
44784;SDS011;30507;53.160;8.210;2023-08-24T14:40:28;0.45;;;0.45;;
44784;SDS011;30507;53.160;8.210;2023-08-24T14:42:54;0.40;;;0.40;;
44784;SDS011;30507;53.160;8.210;2023-08-24T14:45:19;0.95;;;0.90;;
44784;SDS011;30507;53.160;8.210;2023-08-24T14:47:45;0.93;;;0.93;;
44784;SDS011;30507;53.160;8.210;2023-08-24T14:50:10;0.73;;;0.50;;
44784;SDS011;30507;53.160;8.210;2023-08-24T14:52:35;0.80;;;0.80;;
44784;SDS011;30507;53.160;8.210;2023-08-24T14:55:00;0.60;;;0.60;;